createdAt,value
2022-12-11T00:00:53.597Z,0.97
2022-12-11T00:03:21.207Z,1.00
2022-12-11T00:05:48.576Z,0.98
2022-12-11T00:08:15.959Z,0.83
2022-12-11T00:10:50.261Z,0.79
2022-12-11T00:13:17.502Z,0.76
2022-12-11T00:15:44.678Z,0.68
2022-12-11T00:18:14.197Z,0.67
2022-12-11T00:20:42.536Z,0.89
2022-12-11T00:23:10.839Z,0.63
2022-12-11T00:25:47.469Z,0.40
2022-12-11T00:28:20.338Z,0.31
2022-12-11T00:30:48.263Z,0.24
2022-12-11T00:33:15.771Z,0.36
2022-12-11T00:35:48.019Z,0.43
2022-12-11T00:38:20.173Z,0.28
2022-12-11T00:40:48.292Z,0.02
2022-12-11T00:43:16.153Z,0.03
2022-12-11T00:45:47.072Z,0.19
2022-12-11T00:48:14.481Z,0.23
2022-12-11T00:50:42.408Z,0.30
2022-12-11T00:53:09.648Z,0.39
2022-12-11T00:55:40.010Z,0.40
2022-12-11T00:58:07.769Z,0.27
2022-12-11T01:00:35.507Z,0.34
2022-12-11T01:03:03.383Z,0.30
2022-12-11T01:05:30.863Z,0.41
2022-12-11T01:07:58.106Z,0.63
2022-12-11T01:10:25.612Z,0.69
2022-12-11T01:13:01.790Z,0.71
2022-12-11T01:15:41.590Z,0.73
2022-12-11T01:18:12.392Z,0.68
2022-12-11T01:20:43.358Z,0.43
2022-12-11T01:23:13.802Z,0.32
2022-12-11T01:25:42.497Z,0.54
2022-12-11T01:28:10.899Z,0.68
2022-12-11T01:30:38.392Z,0.59
2022-12-11T01:33:05.824Z,0.64
2022-12-11T01:35:33.037Z,0.76
2022-12-11T01:38:00.240Z,0.78
2022-12-11T01:40:27.814Z,0.82
2022-12-11T01:42:55.252Z,0.73
2022-12-11T01:45:24.712Z,0.72
2022-12-11T01:48:23.070Z,0.63
2022-12-11T01:50:53.489Z,0.61
2022-12-11T01:53:28.168Z,0.61
2022-12-11T01:55:57.693Z,0.57
2022-12-11T01:58:32.894Z,0.56
2022-12-11T02:01:02.280Z,0.60
2022-12-11T02:03:29.682Z,0.49
2022-12-11T02:06:02.386Z,0.41
2022-12-11T02:08:29.914Z,0.42
2022-12-11T02:11:21.269Z,0.50
2022-12-11T02:14:43.124Z,0.45
2022-12-11T02:17:47.869Z,0.18
2022-12-11T02:20:37.717Z,-0.12
2022-12-11T02:23:41.995Z,-0.07
2022-12-11T02:26:30.349Z,0.05
2022-12-11T02:29:06.950Z,0.05
2022-12-11T02:31:52.315Z,0.11
2022-12-11T02:34:39.378Z,0.12
2022-12-11T02:37:16.532Z,0.27
2022-12-11T02:39:47.115Z,0.45
2022-12-11T02:42:16.454Z,0.55
2022-12-11T02:44:45.293Z,0.41
2022-12-11T02:47:15.643Z,0.36
2022-12-11T02:49:48.486Z,0.32
2022-12-11T02:52:21.313Z,0.24
2022-12-11T02:54:52.147Z,0.22
2022-12-11T02:58:06.536Z,0.24
2022-12-11T03:00:33.808Z,0.24
2022-12-11T03:03:01.696Z,0.20
2022-12-11T03:05:30.482Z,0.18
2022-12-11T03:07:57.860Z,0.21
2022-12-11T03:10:25.535Z,0.19
2022-12-11T03:12:55.935Z,0.19
2022-12-11T03:15:55.329Z,0.11
2022-12-11T03:19:18.460Z,0.10
2022-12-11T03:22:03.596Z,0.16
2022-12-11T03:24:51.364Z,0.12
2022-12-11T03:27:45.526Z,0.08
2022-12-11T03:30:22.889Z,0.08
2022-12-11T03:33:01.261Z,0.03
2022-12-11T03:35:42.658Z,0.19
2022-12-11T03:38:41.264Z,0.10
2022-12-11T03:41:10.610Z,0.09
2022-12-11T03:43:41.008Z,0.02
2022-12-11T03:46:11.689Z,0.05
2022-12-11T03:48:43.840Z,0.07
2022-12-11T03:51:11.239Z,0.06
2022-12-11T03:53:39.607Z,0.07
2022-12-11T03:56:11.066Z,0.03
2022-12-11T03:58:38.697Z,0.02
2022-12-11T04:01:10.957Z,-0.01
2022-12-11T04:03:39.145Z,0.01
2022-12-11T04:06:06.869Z,0.05
2022-12-11T04:08:34.087Z,0.17
2022-12-11T04:11:23.239Z,0.21
2022-12-11T04:14:10.502Z,0.24
2022-12-11T04:16:38.070Z,0.24
2022-12-11T04:19:24.413Z,0.29
2022-12-11T04:22:10.384Z,0.20
2022-12-11T04:24:37.775Z,0.17
2022-12-11T04:27:04.930Z,0.18
2022-12-11T04:29:32.160Z,0.18
2022-12-11T04:31:59.530Z,0.17
2022-12-11T04:34:26.760Z,0.30
2022-12-11T04:36:54.010Z,0.31
2022-12-11T04:39:21.274Z,0.33
2022-12-11T04:41:48.619Z,0.37
2022-12-11T04:44:15.827Z,0.34
2022-12-11T04:46:43.157Z,0.30
2022-12-11T04:49:10.540Z,0.33
2022-12-11T04:51:37.896Z,0.40
2022-12-11T04:54:05.509Z,0.48
2022-12-11T04:56:32.709Z,0.43
2022-12-11T04:59:00.910Z,0.44
2022-12-11T05:01:28.099Z,0.46
2022-12-11T05:03:55.384Z,0.47
2022-12-11T05:06:22.699Z,0.50
2022-12-11T05:08:50.099Z,0.52
2022-12-11T05:11:17.547Z,0.53
2022-12-11T05:13:45.961Z,0.57
2022-12-11T05:16:16.990Z,0.64
2022-12-11T05:18:44.515Z,0.74
2022-12-11T05:21:14.642Z,0.80
2022-12-11T05:23:42.740Z,0.80
2022-12-11T05:26:18.006Z,0.85
2022-12-11T05:28:46.628Z,0.91
2022-12-11T05:31:19.670Z,0.93
2022-12-11T05:33:50.093Z,0.92
2022-12-11T05:36:28.656Z,0.96
2022-12-11T05:38:57.808Z,1.01
2022-12-11T05:41:31.302Z,1.02
2022-12-11T05:43:58.760Z,1.04
2022-12-11T05:46:30.277Z,0.99
2022-12-11T05:49:02.578Z,0.93
2022-12-11T05:51:31.425Z,0.97
2022-12-11T05:53:58.990Z,0.93
2022-12-11T05:56:31.470Z,0.92
2022-12-11T05:59:01.249Z,0.89
2022-12-11T06:01:42.900Z,0.91
2022-12-11T06:04:13.513Z,0.92
2022-12-11T06:06:41.348Z,0.95
2022-12-11T06:09:08.559Z,0.97
2022-12-11T06:11:36.293Z,0.95
2022-12-11T06:14:04.729Z,0.97
2022-12-11T06:16:32.473Z,0.97
2022-12-11T06:18:59.717Z,0.92
2022-12-11T06:21:34.169Z,0.89
2022-12-11T06:24:03.960Z,0.84
2022-12-11T06:26:32.275Z,0.82
2022-12-11T06:28:59.918Z,0.78
2022-12-11T06:31:27.458Z,0.69
2022-12-11T06:33:54.789Z,0.59
2022-12-11T06:36:24.616Z,0.49
2022-12-11T06:38:52.981Z,0.40
2022-12-11T06:41:20.152Z,0.35
2022-12-11T06:43:47.548Z,0.31
2022-12-11T06:46:19.601Z,0.24
2022-12-11T06:48:48.480Z,0.26
2022-12-11T06:51:22.881Z,0.18
2022-12-11T06:53:56.114Z,0.17
2022-12-11T06:56:24.602Z,0.06
2022-12-11T06:58:52.208Z,-0.03
2022-12-11T07:01:28.005Z,-0.11
2022-12-11T07:03:57.807Z,-0.18
2022-12-11T07:06:29.023Z,-0.17
2022-12-11T07:08:56.626Z,-0.10
2022-12-11T07:11:24.104Z,-0.08
2022-12-11T07:13:51.299Z,-0.06
2022-12-11T07:16:19.393Z,-0.08
2022-12-11T07:18:51.633Z,-0.13
2022-12-11T07:21:20.714Z,-0.19
2022-12-11T07:23:49.208Z,-0.16
2022-12-11T07:26:21.501Z,-0.16
2022-12-11T07:28:49.780Z,-0.11
2022-12-11T07:31:23.129Z,-0.08
2022-12-11T07:34:05.212Z,-0.08
2022-12-11T07:36:34.212Z,-0.11
2022-12-11T07:39:01.639Z,-0.07
2022-12-11T07:41:29.140Z,-0.06
2022-12-11T07:43:56.641Z,-0.05
2022-12-11T07:46:29.200Z,0.01
2022-12-11T07:48:56.640Z,0.12
2022-12-11T07:51:35.516Z,0.21
2022-12-11T07:54:14.909Z,0.27
2022-12-11T07:56:45.623Z,0.33
2022-12-11T07:59:16.668Z,0.30
2022-12-11T08:01:44.184Z,0.29
2022-12-11T08:04:15.560Z,0.33
2022-12-11T08:06:43.654Z,0.40
2022-12-11T08:09:20.698Z,0.55
2022-12-11T08:11:51.269Z,0.62
2022-12-11T08:14:19.862Z,0.69
2022-12-11T08:16:48.821Z,0.76
2022-12-11T08:19:16.994Z,0.92
2022-12-11T08:21:44.940Z,0.92
2022-12-11T08:24:12.325Z,0.98
2022-12-11T08:26:40.416Z,1.08
2022-12-11T08:29:07.811Z,1.14
2022-12-11T08:31:35.043Z,1.19
2022-12-11T08:34:03.605Z,1.15
2022-12-11T08:36:31.033Z,1.12
2022-12-11T08:38:58.845Z,1.10
2022-12-11T08:41:30.165Z,1.21
2022-12-11T08:44:00.252Z,1.34
2022-12-11T08:46:32.376Z,1.43
2022-12-11T08:49:00.194Z,1.41
2022-12-11T08:51:29.863Z,1.35
2022-12-11T08:54:01.187Z,1.30
2022-12-11T08:56:29.856Z,1.33
2022-12-11T08:59:01.995Z,1.33
2022-12-11T09:01:30.220Z,1.30
2022-12-11T09:03:57.571Z,1.33
2022-12-11T09:06:29.228Z,1.50
2022-12-11T09:09:00.795Z,1.54
2022-12-11T09:11:33.570Z,1.44
2022-12-11T09:14:05.436Z,1.46
2022-12-11T09:16:39.660Z,1.44
2022-12-11T09:19:13.505Z,1.56
2022-12-11T09:21:42.957Z,1.57
2022-12-11T09:24:12.485Z,1.54
2022-12-11T09:26:39.984Z,1.62
2022-12-11T09:29:08.048Z,1.79
2022-12-11T09:31:37.444Z,1.99
2022-12-11T09:34:08.657Z,2.15
2022-12-11T09:36:38.668Z,2.28
2022-12-11T09:39:09.095Z,2.42
2022-12-11T09:41:58.094Z,2.58
2022-12-11T09:44:58.956Z,2.77
2022-12-11T09:47:42.939Z,2.95
2022-12-11T09:50:10.372Z,3.06
2022-12-11T09:53:05.663Z,3.20
2022-12-11T09:55:43.752Z,3.29
2022-12-11T10:01:57.878Z,3.21
2022-12-11T10:05:04.169Z,3.20
2022-12-11T10:08:00.553Z,3.20
2022-12-11T10:10:52.661Z,3.20
2022-12-11T10:13:53.126Z,3.18
2022-12-11T10:17:19.876Z,3.35
2022-12-11T10:19:48.284Z,3.29
2022-12-11T10:22:30.504Z,3.30
2022-12-11T10:25:11.924Z,3.23
2022-12-11T10:27:41.254Z,3.22
2022-12-11T10:30:31.661Z,3.26
2022-12-11T10:33:34.686Z,3.11
2022-12-11T10:36:01.864Z,3.17
2022-12-11T10:38:34.598Z,3.25
2022-12-11T10:41:13.060Z,3.29
2022-12-11T10:43:47.481Z,3.31
2022-12-11T10:46:18.134Z,3.29
2022-12-11T10:49:06.410Z,3.26
2022-12-11T10:51:33.828Z,3.27
2022-12-11T10:54:16.611Z,3.17
2022-12-11T10:56:48.471Z,3.18
2022-12-11T10:59:43.552Z,3.20
2022-12-11T11:02:36.862Z,3.24
2022-12-11T11:05:37.466Z,3.26
2022-12-11T11:08:22.517Z,3.33
2022-12-11T11:11:00.255Z,3.38
2022-12-11T11:13:30.946Z,3.39
2022-12-11T11:16:11.909Z,3.49
2022-12-11T11:18:42.064Z,3.49
2022-12-11T11:21:23.975Z,3.61
2022-12-11T11:23:53.844Z,3.62
2022-12-11T11:26:30.784Z,3.71
2022-12-11T11:29:31.106Z,3.79
2022-12-11T11:32:19.616Z,3.89
2022-12-11T11:34:46.836Z,3.91
2022-12-11T11:37:34.322Z,4.03
2022-12-11T11:40:30.454Z,4.17
2022-12-11T11:43:52.288Z,4.06
2022-12-11T11:46:36.544Z,4.06
2022-12-11T11:49:53.536Z,4.05
2022-12-11T11:52:39.457Z,3.97
2022-12-11T11:59:22.934Z,3.94
2022-12-11T12:01:55.288Z,3.91
2022-12-11T12:04:23.263Z,3.97
2022-12-11T12:07:44.613Z,4.13
2022-12-11T12:10:49.920Z,4.32
2022-12-11T12:14:50.632Z,4.29
2022-12-11T12:17:09.520Z,4.22
2022-12-11T12:20:35.159Z,4.48
2022-12-11T12:23:51.996Z,5.09
2022-12-11T12:27:01.425Z,5.36
2022-12-11T12:30:25.715Z,5.46
2022-12-11T12:33:27.722Z,5.38
2022-12-11T12:36:41.609Z,5.25
2022-12-11T12:39:26.636Z,5.19
2022-12-11T12:42:18.949Z,5.14
2022-12-11T12:45:33.473Z,4.96
2022-12-11T12:48:01.964Z,4.83
2022-12-11T12:50:44.690Z,4.92
2022-12-11T12:53:21.867Z,4.96
2022-12-11T12:55:50.108Z,5.19
2022-12-11T12:58:45.919Z,5.18
2022-12-11T13:01:13.111Z,5.47
2022-12-11T13:04:06.424Z,5.79
2022-12-11T13:06:46.008Z,5.72
2022-12-11T13:09:26.956Z,5.72
2022-12-11T13:11:59.749Z,5.60
2022-12-11T13:14:33.767Z,5.61
2022-12-11T13:17:24.704Z,5.94
2022-12-11T13:20:16.278Z,6.26
2022-12-11T13:23:40.370Z,6.33
2022-12-11T13:26:10.014Z,6.11
2022-12-11T13:28:40.033Z,5.84
2022-12-11T13:31:39.532Z,6.04
2022-12-11T13:34:23.212Z,6.03
2022-12-11T13:36:53.473Z,5.82
2022-12-11T13:39:32.457Z,5.53
2022-12-11T13:42:11.967Z,5.07
2022-12-11T13:44:47.806Z,4.83
2022-12-11T13:47:19.319Z,4.64
2022-12-11T13:49:54.830Z,4.41
2022-12-11T13:52:28.673Z,4.23
2022-12-11T13:54:59.184Z,4.12
2022-12-11T13:57:30.858Z,4.03
2022-12-11T13:59:59.546Z,3.95
2022-12-11T14:02:39.465Z,3.88
2022-12-11T14:05:12.692Z,3.78
2022-12-11T14:07:52.546Z,3.70
2022-12-11T14:10:24.361Z,3.65
2022-12-11T14:13:15.805Z,3.58
2022-12-11T14:15:45.446Z,3.51
2022-12-11T14:18:24.093Z,3.47
2022-12-11T14:21:01.693Z,3.55
2022-12-11T14:23:33.454Z,3.53
2022-12-11T14:26:21.379Z,3.46
2022-12-11T14:28:48.989Z,3.42
2022-12-11T14:31:45.586Z,3.44
2022-12-11T14:34:18.352Z,3.47
2022-12-11T14:36:48.121Z,3.49
2022-12-11T14:39:36.080Z,3.55
2022-12-11T14:42:20.052Z,3.67
2022-12-11T14:45:21.438Z,3.59
2022-12-11T14:47:49.394Z,3.60
2022-12-11T14:50:43.651Z,3.47
2022-12-11T14:53:20.076Z,3.36
2022-12-11T14:55:50.215Z,3.28
2022-12-11T14:58:26.682Z,3.31
2022-12-11T15:01:06.106Z,3.29
2022-12-11T15:03:40.502Z,3.16
2022-12-11T15:06:33.267Z,2.94
2022-12-11T15:09:35.673Z,2.85
2022-12-11T15:12:18.421Z,2.83
2022-12-11T15:14:58.760Z,2.72
2022-12-11T15:17:27.436Z,2.63
2022-12-11T15:20:14.064Z,2.61
2022-12-11T15:22:44.488Z,2.54
2022-12-11T15:25:25.966Z,2.37
2022-12-11T15:27:58.321Z,2.26
2022-12-11T15:30:34.431Z,2.17
2022-12-11T15:33:10.702Z,2.11
2022-12-11T15:35:50.893Z,2.01
2022-12-11T15:38:37.631Z,1.86
2022-12-11T15:41:06.871Z,1.80
2022-12-11T15:43:37.421Z,1.73
2022-12-11T15:46:06.860Z,1.73
2022-12-11T15:48:34.416Z,1.71
2022-12-11T15:51:01.797Z,1.63
2022-12-11T15:53:29.165Z,1.58
2022-12-11T15:55:58.914Z,1.48
2022-12-11T15:58:27.364Z,1.43
2022-12-11T16:00:55.332Z,1.35
2022-12-11T16:03:24.209Z,1.26
2022-12-11T16:05:53.470Z,1.27
2022-12-11T16:08:24.279Z,1.22
2022-12-11T16:10:54.715Z,1.16
2022-12-11T16:13:23.979Z,1.30
2022-12-11T16:15:54.309Z,1.20
2022-12-11T16:18:23.975Z,1.10
2022-12-11T16:20:52.625Z,1.06
2022-12-11T16:23:20.358Z,1.05
2022-12-11T16:25:48.628Z,1.04
2022-12-11T16:28:21.065Z,1.03
2022-12-11T16:30:49.689Z,0.99
2022-12-11T16:33:17.403Z,0.96
2022-12-11T16:35:44.631Z,0.89
2022-12-11T16:38:12.027Z,0.86
2022-12-11T16:40:39.360Z,0.79
2022-12-11T16:43:06.852Z,0.77
2022-12-11T16:45:34.531Z,0.77
2022-12-11T16:48:05.705Z,0.70
2022-12-11T16:50:33.358Z,0.65
2022-12-11T16:53:00.715Z,0.67
2022-12-11T16:55:27.941Z,0.64
2022-12-11T16:57:55.263Z,0.63
2022-12-11T17:00:22.772Z,0.59
2022-12-11T17:02:50.534Z,0.53
2022-12-11T17:05:17.908Z,0.47
2022-12-11T17:07:46.482Z,0.36
2022-12-11T17:10:14.432Z,0.29
2022-12-11T17:12:41.888Z,0.29
2022-12-11T17:15:10.273Z,0.30
2022-12-11T17:17:38.002Z,0.28
2022-12-11T17:20:06.253Z,0.18
2022-12-11T17:22:33.508Z,0.20
2022-12-11T17:25:00.823Z,0.24
2022-12-11T17:27:28.176Z,0.33
2022-12-11T17:29:55.515Z,0.28
2022-12-11T17:32:22.843Z,0.25
2022-12-11T17:34:50.446Z,0.18
2022-12-11T17:37:18.583Z,0.17
2022-12-11T17:39:47.233Z,0.15
2022-12-11T17:42:14.441Z,0.15
2022-12-11T17:44:42.048Z,0.16
2022-12-11T17:47:11.887Z,0.12
2022-12-11T17:49:40.492Z,0.00
2022-12-11T17:52:08.292Z,-0.01
2022-12-11T17:54:35.536Z,-0.01
2022-12-11T17:57:02.692Z,-0.02
2022-12-11T17:59:29.990Z,-0.08
2022-12-11T18:01:57.862Z,-0.21
2022-12-11T18:04:25.482Z,-0.28
2022-12-11T18:06:52.960Z,-0.09
2022-12-11T18:09:20.168Z,-0.12
2022-12-11T18:11:47.625Z,-0.22
2022-12-11T18:14:17.368Z,-0.29
2022-12-11T18:16:45.146Z,-0.37
2022-12-11T18:19:14.611Z,-0.28
2022-12-11T18:21:45.579Z,0.02
2022-12-11T18:24:12.929Z,0.23
2022-12-11T18:26:42.833Z,0.24
2022-12-11T18:29:10.203Z,0.27
2022-12-11T18:31:42.400Z,0.31
2022-12-11T18:34:10.976Z,0.27
2022-12-11T18:36:38.501Z,0.18
2022-12-11T18:39:05.987Z,0.05
2022-12-11T18:41:33.175Z,-0.03
2022-12-11T18:44:08.017Z,0.05
2022-12-11T18:46:37.498Z,0.06
2022-12-11T18:49:05.954Z,0.26
2022-12-11T18:51:33.211Z,0.38
2022-12-11T18:54:00.425Z,0.44
2022-12-11T18:56:27.701Z,0.48
2022-12-11T18:58:55.021Z,0.53
2022-12-11T19:01:28.755Z,0.53
2022-12-11T19:04:05.295Z,0.53
2022-12-11T19:06:35.589Z,0.48
2022-12-11T19:09:07.548Z,0.36
2022-12-11T19:11:40.707Z,0.22
2022-12-11T19:14:10.688Z,0.23
2022-12-11T19:16:43.966Z,0.48
2022-12-11T19:19:22.248Z,0.63
2022-12-11T19:21:50.682Z,0.73
2022-12-11T19:24:23.230Z,0.86
2022-12-11T19:26:51.355Z,0.91
2022-12-11T19:29:35.271Z,0.87
2022-12-11T19:32:04.544Z,0.86
2022-12-11T19:34:31.682Z,0.90
2022-12-11T19:36:58.903Z,0.89
2022-12-11T19:39:26.460Z,0.95
2022-12-11T19:41:53.821Z,0.94
2022-12-11T19:44:21.181Z,0.98
2022-12-11T19:46:48.403Z,1.01
2022-12-11T19:49:15.721Z,0.95
2022-12-11T19:51:43.553Z,1.01
2022-12-11T19:54:16.216Z,1.08
2022-12-11T19:56:44.628Z,1.14
2022-12-11T19:59:16.702Z,1.18
2022-12-11T20:01:47.895Z,1.14
2022-12-11T20:04:17.277Z,1.08
2022-12-11T20:06:47.238Z,1.10
2022-12-11T20:09:16.133Z,1.08
2022-12-11T20:11:45.991Z,1.12
2022-12-11T20:14:26.362Z,1.08
2022-12-11T20:17:13.744Z,1.05
2022-12-11T20:19:42.735Z,1.02
2022-12-11T20:22:10.810Z,1.01
2022-12-11T20:24:38.468Z,0.96
2022-12-11T20:27:05.677Z,0.91
2022-12-11T20:29:33.025Z,0.91
2022-12-11T20:32:00.482Z,0.92
2022-12-11T20:34:28.318Z,1.02
2022-12-11T20:36:56.378Z,1.13
2022-12-11T20:39:24.550Z,1.19
2022-12-11T20:41:51.714Z,1.15
2022-12-11T20:44:20.070Z,1.16
2022-12-11T20:46:47.646Z,1.14
2022-12-11T20:49:14.938Z,1.08
2022-12-11T20:51:42.198Z,1.09
2022-12-11T20:54:09.755Z,1.19
2022-12-11T20:56:38.734Z,1.23
2022-12-11T20:59:06.747Z,1.24
2022-12-11T21:01:34.943Z,1.26
2022-12-11T21:04:04.798Z,1.27
2022-12-11T21:06:36.491Z,1.12
2022-12-11T21:09:17.547Z,1.11
2022-12-11T21:11:44.929Z,1.17
2022-12-11T21:14:13.247Z,1.07
2022-12-11T21:16:41.087Z,1.01
2022-12-11T21:19:15.108Z,1.07
2022-12-11T21:21:45.302Z,1.05
2022-12-11T21:24:26.265Z,1.09
2022-12-11T21:26:56.934Z,0.93
2022-12-11T21:29:27.758Z,0.83
2022-12-11T21:31:55.217Z,0.91
2022-12-11T21:34:25.568Z,0.81
2022-12-11T21:36:56.740Z,0.70
2022-12-11T21:39:28.457Z,0.72
2022-12-11T21:41:55.735Z,0.73
2022-12-11T21:47:10.404Z,0.85
2022-12-11T21:49:38.020Z,0.89
2022-12-11T21:52:05.618Z,0.94
2022-12-11T21:54:32.810Z,0.87
2022-12-11T21:57:00.172Z,0.90
2022-12-11T21:59:28.563Z,0.87
2022-12-11T22:01:55.907Z,0.79
2022-12-11T22:04:23.168Z,0.76
2022-12-11T22:06:50.466Z,0.72
2022-12-11T22:09:18.406Z,0.72
2022-12-11T22:11:47.435Z,0.72
2022-12-11T22:14:18.299Z,0.78
2022-12-11T22:16:46.363Z,0.80
2022-12-11T22:19:13.814Z,0.83
2022-12-11T22:21:41.107Z,0.78
2022-12-11T22:24:08.633Z,0.78
2022-12-11T22:26:36.049Z,0.77
2022-12-11T22:29:03.606Z,0.69
2022-12-11T22:31:31.225Z,0.77
2022-12-11T22:33:59.432Z,0.83
2022-12-11T22:36:27.776Z,0.90
2022-12-11T22:38:55.531Z,0.95
2022-12-11T22:41:32.618Z,0.95
2022-12-11T22:44:00.163Z,0.95
2022-12-11T22:46:30.727Z,0.97
2022-12-11T22:48:58.852Z,1.02
2022-12-11T22:51:26.414Z,1.11
2022-12-11T22:53:53.656Z,1.12
2022-12-11T22:56:21.024Z,1.05
2022-12-11T22:58:48.353Z,0.93
2022-12-11T23:01:22.432Z,1.03
2022-12-11T23:03:50.130Z,1.12
2022-12-11T23:06:22.553Z,1.11
2022-12-11T23:08:50.369Z,1.17
2022-12-11T23:11:44.472Z,1.08
2022-12-11T23:14:17.405Z,0.94
2022-12-11T23:16:45.244Z,0.98
2022-12-11T23:19:12.892Z,0.98
2022-12-11T23:21:40.520Z,1.04
2022-12-11T23:24:08.808Z,1.04
2022-12-11T23:26:36.938Z,1.02
2022-12-11T23:29:06.094Z,0.96
2022-12-11T23:31:34.205Z,0.87
2022-12-11T23:34:01.509Z,0.82
2022-12-11T23:36:30.153Z,0.84
2022-12-11T23:38:57.497Z,0.88
2022-12-11T23:41:25.626Z,0.87
2022-12-11T23:43:53.056Z,0.87
2022-12-11T23:46:24.697Z,0.83
2022-12-11T23:48:53.608Z,0.80
2022-12-11T23:51:24.821Z,0.85
2022-12-11T23:53:54.540Z,0.87
2022-12-11T23:56:28.627Z,0.86
2022-12-11T23:58:57.166Z,0.84
